Tiempo atmosférico en la estación meteorológica de San Bartolome Tirajana, Lomo Pedro Alfonso, Las Palmas (806 m.)



Fecha
DESCASC
Temp. máxima en grados centígrados (hora)
DESCASC
Temp. mínima en grados centígrados (hora)
DESCASC
Temp. media en grados centígrados
DESCASC
Racha de viento máxima en m/sg (hora)
DESCASC
Velocidad máxima media en intervalos de 10 minutos(hora)
DESCASC
Precipitaciones diarias en mm
DESCASC
Precipitaciones de 00:00 a 06:00 en mm
DESCASC
Precipitaciones de 06:00 a 12:00 en mm
DESCASC
Precipitaciones de 12:00 a 18:00 en mm
DESCASC
Precipitaciones de 18:00 a 24:00 en mm
DESCASC
24-05-2020 33.2 (18:30) 25.9 (23:00) 29.6 5.83 (18:00) 3.61 (06:40) 0 0 0 0 0
23-05-2020 35.6 (14:20) 23.8 (03:30) 29.7 14.17 (12:50) 8.33 (15:30) 0 0 0 0 0
22-05-2020 29.8 (17:40) 17.7 (00:10) 23.8 6.67 (23:10) 4.72 (23:20) 0 0 0 0 0
21-05-2020 25.8 (17:20) 16.1 (00:00) 20.9 6.94 (14:00) 3.61 (17:20) 0 0 0 0 0
20-05-2020 27.8 (16:40) 14.8 (00:00) 21.3 6.94 (16:50) 3.61 (16:50) 0 0 0 0 0
19-05-2020 24.9 (17:10) 11.9 (00:00) 18.4 6.94 (12:40) 3.89 (16:40) 0 0 0 0 0
18-05-2020 21.5 (18:20) 12 (00:00) 16.8 7.22 (15:20) 3.89 (17:40) 0 0 0 0 0
17-05-2020 21.3 (16:00) 12.2 (00:00) 16.7 9.17 (16:10) 5 (16:20) 0 0 0 0 0
16-05-2020 22.1 (15:20) 11.7 (00:00) 16.9 11.67 (16:50) 5.28 (16:00) 0 0 0 0 0
15-05-2020 22.5 (18:20) 11.6 (00:00) 17.1 20.28 (03:20) 12.5 (03:10) 0 0 0 0 0
14-05-2020 21.1 (14:00) 12.6 (00:00) 16.9 16.11 (22:10) 8.89 (22:10) 0 0 0 0 0
13-05-2020 23 (13:30) 13 (00:00) 18 11.67 (11:20) 6.67 (12:20) 0 0 0 0 0
12-05-2020 22.7 (18:20) 13.1 (00:00) 17.9 11.94 (20:30) 7.22 (04:50) 0 0 0 0 0
11-05-2020 23.4 (16:40) 13 (00:00) 18.2 7.5 (16:30) 4.17 (13:50) 0 0 0 0 0
10-05-2020 23.4 (16:20) 13.2 (00:00) 18.3 8.06 (16:10) 4.17 (16:10) 0 0 0 0 0
09-05-2020 22.1 (19:10) 12.5 (00:00) 17.3 7.22 (13:30) 3.61 (13:10) 0 0 0 0 0
08-05-2020 22.6 (17:20) 12.2 (00:00) 17.4 8.06 (17:30) 4.44 (17:30) 0 0 0 0 0
07-05-2020 18.2 (16:40) 12 (00:00) 15.1 7.5 (14:20) 4.44 (18:00) 0 0 0 0 0
06-05-2020 22.6 (16:50) 12 (00:00) 17.3 7.78 (18:20) 4.17 (18:20) 0 0 0 0 0
05-05-2020 22 (16:40) 12.4 (00:00) 17.2 9.17 (17:00) 5.28 (17:40) 0 0 0 0 0
04-05-2020 21.1 (14:00) 13.9 (00:00) 17.5 6.39 (13:50) 4.17 (16:30) 0 0 0 0 0
03-05-2020 29.9 (16:10) 18.2 (00:00) 24.1 9.17 (17:10) 5.83 (17:00) 0 0 0 0 0
02-05-2020 28.8 (17:10) 16.5 (00:00) 22.6 6.67 (14:30) 4.17 (14:40) 0 0 0 0 0
01-05-2020 24.3 (15:30) 15.4 (00:00) 19.8 7.22 (16:30) 3.61 (11:40) 0 0 0 0 0
30-04-2020 24.8 (17:00) 12.1 (00:00) 18.4 7.22 (15:00) 3.89 (17:30) 0 0 0 0 0
29-04-2020 19.9 (18:40) 11.8 (00:00) 15.8 8.61 (18:20) 4.17 (17:50) 0 0 0 0 0
28-04-2020 18.1 (16:10) 11.4 (00:00) 14.8 6.39 (14:10) 3.61 (12:50) 0 0 0 0 0
27-04-2020 20.4 (15:10) 11.1 (00:00) 15.8 7.5 (15:10) 4.17 (15:20) 0 0 0 0 0
26-04-2020 17.3 (12:10) 10.2 (00:00) 13.7 6.67 (12:00) 3.61 (14:30) 0 0 0 0 0

Gráficas

Temp. máximas Temp. mínimas Temp. medias Precipitaciones Rachas de viento máximas Velocidades máximas media en intervalos de 10 minutos

Datos horarios

Fecha y hora oficial Temperatura (ºC) Velocidad del viento (km/h) Dirección del viento Racha (km/h) Dirección de racha Precipitación (mm) Presión (hPa) Tendencia (hPa) Humedad (%)
2020-05-25 23:00:00 26.3 0 Calma 4 Nordeste 0 -- -- 41
2020-05-25 22:00:00 26.4 0 Calma 2 Noroeste 0 -- -- 31
2020-05-25 21:00:00 28 0 Calma 8 Noroeste 0 -- -- 37
2020-05-25 20:00:00 29.6 4 Oeste 12 Oeste 0 -- -- 38
2020-05-25 19:00:00 30.7 8 Oeste 18 Oeste 0 -- -- 41
2020-05-25 18:00:00 32.2 11 Oeste 21 Noroeste 0 -- -- 32
2020-05-25 17:00:00 33.4 12 Sudoeste 26 Oeste 0 -- -- 22
2020-05-25 16:00:00 34.3 13 Oeste 22 Oeste 0 -- -- 22
2020-05-25 15:00:00 32.9 10 Oeste 24 Sudoeste 0 -- -- 34
2020-05-25 14:00:00 32.8 10 Oeste 17 Sudoeste 0 -- -- 36
2020-05-25 13:00:00 31.4 9 Oeste 14 Noroeste 0 -- -- 30
2020-05-25 12:00:00 29.5 5 Oeste 11 Oeste 0 -- -- 33
2020-05-25 11:00:00 29.1 4 Oeste 9 Sudoeste 0 -- -- 20
2020-05-25 10:00:00 27.8 3 Sur 5 Sur 0 -- -- 18
2020-05-25 09:00:00 26.7 0 Calma 5 Sudoeste 0 -- -- 16
2020-05-25 08:00:00 25.5 5 Nordeste 13 Este 0 -- -- 18
2020-05-25 07:00:00 25 5 Este 6 Este 0 -- -- 22
2020-05-25 06:00:00 25.7 2 Sudeste 7 Este 0 -- -- 16
2020-05-25 05:00:00 26 0 Calma 6 Este 0 -- -- 16
2020-05-25 04:00:00 26.1 0 Calma 6 Nordeste 0 -- -- 21
2020-05-25 03:00:00 26.4 4 Nordeste 6 Este 0 -- -- 24
2020-05-25 02:00:00 26.9 4 Nordeste 8 Nordeste 0 -- -- 24
2020-05-25 01:00:00 26.7 6 Nordeste 10 Nordeste 0 -- -- 29
2020-05-25 00:00:00 26.7 3 Nordeste 11 Norte 0 -- -- 28
2020-05-24 23:00:00 25.9 8 Este 13 Este 0 -- -- 41
2020-05-24 22:00:00 26.5 0 Calma 9 Noroeste 0 -- -- 37
2020-05-24 21:00:00 27.4 2 Norte 8 Oeste 0 -- -- 44
2020-05-24 20:00:00 30.3 5 Oeste 15 Oeste 0 -- -- 37
2020-05-24 19:00:00 32.5 9 Oeste 19 Oeste 0 -- -- 32
2020-05-24 18:00:00 32.8 11 Oeste 21 Oeste 0 -- -- 31
2020-05-24 17:00:00 31.9 9 Oeste 19 Oeste 0 -- -- 37
2020-05-24 16:00:00 31.2 8 Oeste 17 Noroeste 0 -- -- 40
2020-05-24 15:00:00 31.4 8 Oeste 15 Oeste 0 -- -- 40
2020-05-24 14:00:00 30.8 7 Oeste 13 Noroeste 0 -- -- 39
2020-05-24 13:00:00 29.4 6 Oeste 18 Sudeste 0 -- -- 39
2020-05-24 12:00:00 29.7 6 Sudoeste 18 Sur 0 -- -- 34
2020-05-24 11:00:00 29.9 4 Sudoeste 14 Sudoeste 0 -- -- 27
2020-05-24 10:00:00 31 2 Oeste 5 Sur 0 -- -- 18
2020-05-24 09:00:00 30.3 3 Sur 7 Este 0 -- -- 16
2020-05-24 08:00:00 29.2 6 Este 17 Nordeste 0 -- -- 16
2020-05-24 07:00:00 28.9 10 Nordeste 17 Nordeste 0 -- -- 17
2020-05-24 06:00:00 28.7 10 Nordeste 12 Nordeste 0 -- -- 16
2020-05-24 05:00:00 29.3 4 Nordeste 6 Nordeste 0 -- -- 16
2020-05-24 04:00:00 29.6 0 Calma 5 Nordeste 0 -- -- 16
2020-05-24 03:00:00 29.7 4 Nordeste 5 Nordeste 0 -- -- 15
2020-05-24 02:00:00 29.3 3 Nordeste 9 Nordeste 0 -- -- 16
2020-05-24 01:00:00 29.5 8 Nordeste 16 Nordeste 0 -- -- 15
2020-05-24 00:00:00 29.9 14 Nordeste 23 Nordeste 0 -- -- 15
2020-05-23 23:00:00 29.9 18 Nordeste 24 Nordeste 0 -- -- 16
2020-05-23 22:00:00 29.8 14 Nordeste 21 Nordeste 0 -- -- 16
2020-05-23 21:00:00 30.8 11 Norte 17 Norte 0 -- -- 16
2020-05-23 20:00:00 33.7 8 Norte 24 Nordeste 0 -- -- 15
2020-05-23 19:00:00 34.4 12 Norte 29 Norte 0 -- -- 14
2020-05-23 18:00:00 34.6 9 Nordeste 37 Nordeste 0 -- -- 14
2020-05-23 17:00:00 35.2 22 Nordeste 44 Nordeste 0 -- -- 14
2020-05-23 16:00:00 35.2 28 Norte 47 Nordeste 0 -- -- 14
2020-05-23 15:00:00 35.2 30 Norte 46 Norte 0 -- -- 15
2020-05-23 14:00:00 35.2 18 Norte 45 Nordeste 0 -- -- 14
2020-05-23 13:00:00 34.3 26 Norte 51 Nordeste 0 -- -- 15
2020-05-23 12:00:00 33.5 17 Norte 40 Nordeste 0 -- -- 15
2020-05-23 11:00:00 32.2 15 Nordeste 39 Nordeste 0 -- -- 15
2020-05-23 10:00:00 30.9 7 Nordeste 22 Nordeste 0 -- -- 19
2020-05-23 09:00:00 29.2 14 Nordeste 36 Nordeste 0 -- -- 18
2020-05-23 08:00:00 26.7 18 Nordeste 26 Nordeste 0 -- -- 21
2020-05-23 07:00:00 24.6 11 Este 15 Este 0 -- -- 25
2020-05-23 06:00:00 24.7 4 Nordeste 8 Este 0 -- -- 27
2020-05-23 05:00:00 24.6 4 Nordeste 12 Sudeste 0 -- -- 29
2020-05-23 04:00:00 23.8 3 Sudeste 13 Este 0 -- -- 31
2020-05-23 03:00:00 24.3 3 Este 12 Este 0 -- -- 27
2020-05-23 02:00:00 26.1 2 Nordeste 5 Nordeste 0 -- -- 22
2020-05-23 01:00:00 26.7 3 Sur 7 Sudeste 0 -- -- 25
2020-05-23 00:00:00 28.3 6 Nordeste 24 Norte 0 -- -- 18
2020-05-22 23:00:00 27.7 12 Nordeste 17 Nordeste 0 -- -- 20
2020-05-22 22:00:00 26 4 Norte 12 Este 0 -- -- 40
2020-05-22 21:00:00 27.5 3 Sudoeste 5 Norte 0 -- -- 38
2020-05-22 20:00:00 29.2 4 Norte 9 Oeste 0 -- -- 37
2020-05-22 19:00:00 29 6 Oeste 13 Oeste 0 -- -- 44
2020-05-22 18:00:00 29.5 8 Oeste 16 Oeste 0 -- -- 42
2020-05-22 17:00:00 29.3 7 Oeste 15 Oeste 0 -- -- 39
2020-05-22 16:00:00 29.3 7 Noroeste 16 Oeste 0 -- -- 38
2020-05-22 15:00:00 27.4 8 Oeste 15 Oeste 0 -- -- 43
2020-05-22 14:00:00 26.9 6 Oeste 12 Oeste 0 -- -- 43
2020-05-22 13:00:00 25.5 6 Oeste 11 Oeste 0 -- -- 47
2020-05-22 12:00:00 24 5 Oeste 11 Sur 0 -- -- 48
2020-05-22 11:00:00 23.7 7 Sur 13 Sur 0 -- -- 46
2020-05-22 10:00:00 23.4 2 Oeste 5 Norte 0 -- -- 26
2020-05-22 09:00:00 21.1 0 Calma 3 Este 0 -- -- 30
2020-05-22 08:00:00 19.8 0 Calma 6 Nordeste 0 -- -- 31
2020-05-22 07:00:00 18.2 4 Norte 5 Norte 0 -- -- 37
2020-05-22 06:00:00 19.1 0 Calma 5 Nordeste 0 -- -- 38
2020-05-22 05:00:00 19.2 0 Calma 5 Este 0 -- -- 44
2020-05-22 04:00:00 18.6 2 Nordeste 8 Este 0 -- -- 56
2020-05-22 03:00:00 18.7 6 Este 8 Este 0 -- -- 62
2020-05-22 02:00:00 18.8 2 Sudeste 4 Este 0 -- -- 65
2020-05-22 01:00:00 18.4 0 Calma 5 Nordeste 0 -- -- 69
2020-05-22 00:00:00 18 0 Calma 8 Este 0 -- -- 70
2020-05-21 23:00:00 18.5 2 Norte 4 Sudeste 0 -- -- 71
2020-05-21 22:00:00 19.9 0 Calma 6 Sur 0 -- -- 65
2020-05-21 21:00:00 20.9 2 Nordeste 10 Oeste 0 -- -- 64
2020-05-21 20:00:00 23.1 6 Oeste 14 Oeste 0 -- -- 58
2020-05-21 19:00:00 24.5 9 Oeste 18 Oeste 0 -- -- 54
2020-05-21 18:00:00 25.4 9 Oeste 23 Oeste 0 -- -- 52
2020-05-21 17:00:00 25.7 11 Oeste 24 Oeste 0 -- -- 51
2020-05-21 16:00:00 25.2 11 Oeste 21 Sudoeste 0 -- -- 51
2020-05-21 15:00:00 25 9 Oeste 22 Sudoeste 0 -- -- 51
2020-05-21 14:00:00 25.1 10 Sudoeste 25 Sudoeste 0 -- -- 51
2020-05-21 13:00:00 24.2 7 Sudoeste 18 Sur 0 -- -- 54
2020-05-21 12:00:00 22.7 5 Oeste 15 Sudoeste 0 -- -- 54
2020-05-21 11:00:00 22.1 5 Sudoeste 14 Sur 0 -- -- 44
2020-05-21 10:00:00 21.8 3 Nordeste 12 Este 0 -- -- 35
2020-05-21 09:00:00 20.1 8 Este 13 Este 0 -- -- 33
2020-05-21 08:00:00 17.5 4 Este 10 Este 0 -- -- 38
2020-05-21 07:00:00 16.2 0 Calma 4 Nordeste 0 -- -- 44
2020-05-21 06:00:00 16.8 0 Calma 5 Norte 0 -- -- 45
2020-05-21 05:00:00 17.4 0 Calma 6 Sudeste 0 -- -- 41
2020-05-21 04:00:00 17.5 0 Calma 5 Nordeste 0 -- -- 46
2020-05-21 03:00:00 18.2 0 Calma 5 Sur 0 -- -- 46
2020-05-21 02:00:00 18.1 2 Nordeste 8 Nordeste 0 -- -- 53
2020-05-21 01:00:00 18.2 2 Nordeste 8 Este 0 -- -- 44
2020-05-21 00:00:00 18.2 0 Calma 5 Noroeste 0 -- -- 68
2020-05-20 23:00:00 18.6 0 Calma 4 Nordeste 0 -- -- 67
2020-05-20 22:00:00 19.8 0 Calma 9 Este 0 -- -- 64
2020-05-20 21:00:00 21.5 3 Sudoeste 14 Oeste 0 -- -- 58
2020-05-20 20:00:00 24.7 10 Oeste 21 Sudoeste 0 -- -- 46
2020-05-20 19:00:00 26.1 11 Oeste 22 Oeste 0 -- -- 43
2020-05-20 18:00:00 26.6 11 Sudoeste 24 Oeste 0 -- -- 47
2020-05-20 17:00:00 27.6 13 Oeste 25 Sudoeste 0 -- -- 34
2020-05-20 16:00:00 27.6 12 Oeste 25 Sudoeste 0 -- -- 42
2020-05-20 15:00:00 26.2 12 Oeste 22 Oeste 0 -- -- 48
2020-05-20 14:00:00 24.9 9 Oeste 24 Sur 0 -- -- 51
2020-05-20 13:00:00 24.1 6 Oeste 14 Sudoeste 0 -- -- 55
2020-05-20 12:00:00 23.1 6 Oeste 11 Noroeste 0 -- -- 54
2020-05-20 11:00:00 22.6 3 Noroeste 8 Sur 0 -- -- 47
2020-05-20 10:00:00 22.1 3 Norte 5 Norte 0 -- -- 31
2020-05-20 09:00:00 20.3 3 Este 8 Este 0 -- -- 33
2020-05-20 08:00:00 18.5 2 Sudeste 5 Nordeste 0 -- -- 36
2020-05-20 07:00:00 18 4 Nordeste 6 Nordeste 0 -- -- 37
2020-05-20 06:00:00 17.7 0 Calma 6 Este 0 -- -- 42
2020-05-20 05:00:00 17.5 2 Nordeste 6 Este 0 -- -- 45
2020-05-20 04:00:00 16.8 4 Nordeste 7 Sudeste 0 -- -- 58
2020-05-20 03:00:00 16.7 0 Calma 5 Nordeste 0 -- -- 68
2020-05-20 02:00:00 15.4 3 Nordeste 6 Este 0 -- -- 81
2020-05-20 01:00:00 16.4 3 Sur 5 Sudeste 0 -- -- 74
2020-05-20 00:00:00 15 0 Calma 4 Nordeste 0 -- -- 89
2020-05-19 23:00:00 15.5 3 Norte 5 Oeste 0 -- -- 87
2020-05-19 22:00:00 16.3 2 Sudoeste 6 Oeste 0 -- -- 84
2020-05-19 21:00:00 18.1 2 Noroeste 17 Oeste 0 -- -- 76
2020-05-19 20:00:00 21.1 7 Oeste 22 Oeste 0 -- -- 66
2020-05-19 19:00:00 23.1 12 Oeste 23 Oeste 0 -- -- 60
2020-05-19 18:00:00 23.5 12 Oeste 23 Oeste 0 -- -- 56
2020-05-19 17:00:00 24.6 12 Oeste 25 Oeste 0 -- -- 54
2020-05-19 16:00:00 23.7 10 Oeste 22 Sudoeste 0 -- -- 57
2020-05-19 15:00:00 22.8 10 Oeste 20 Norte 0 -- -- 59
2020-05-19 14:00:00 22.3 9 Sudoeste 23 Sudoeste 0 -- -- 59
2020-05-19 13:00:00 21 8 Sudoeste 25 Sudoeste 0 -- -- 62
2020-05-19 12:00:00 20.2 5 Oeste 19 Sur 0 -- -- 59
2020-05-19 11:00:00 18.2 4 Noroeste 12 Sudoeste 0 -- -- 64
2020-05-19 10:00:00 16.6 0 Calma 10 Nordeste 0 -- -- 59
2020-05-19 09:00:00 14.6 0 Calma 6 Este 0 -- -- 60
2020-05-19 08:00:00 12.1 4 Nordeste 13 Este 0 -- -- 76
2020-05-19 07:00:00 12.2 2 Sur 7 Sur 0 -- -- 71
2020-05-19 06:00:00 12 0 Calma 9 Este 0 -- -- 83
2020-05-19 05:00:00 12.4 0 Calma 8 Oeste 0 -- -- 91
2020-05-19 04:00:00 13 6 Oeste 11 Oeste 0 -- -- 91
2020-05-19 03:00:00 13 2 Oeste 6 Noroeste 0 -- -- 92
2020-05-19 02:00:00 13.3 3 Este 8 Oeste 0 -- -- 90
2020-05-19 01:00:00 13.7 6 Nordeste 12 Nordeste 0 -- -- 89
2020-05-19 00:00:00 14.2 2 Noroeste 9 Oeste 0 -- -- 88
2020-05-18 23:00:00 14.4 6 Sudoeste 13 Oeste 0 -- -- 88
2020-05-18 22:00:00 14.8 4 Sudoeste 12 Oeste 0 -- -- 84
2020-05-18 21:00:00 16.7 7 Oeste 17 Oeste 0 -- -- 74
2020-05-18 20:00:00 20.1 10 Oeste 21 Oeste 0 -- -- 61
2020-05-18 19:00:00 21.2 11 Oeste 20 Sudoeste 0 -- -- 56
2020-05-18 18:00:00 21.4 11 Oeste 23 Oeste 0 -- -- 54
2020-05-18 17:00:00 20.9 12 Oeste 22 Oeste 0 -- -- 56
2020-05-18 16:00:00 20.5 8 Oeste 26 Oeste 0 -- -- 60
2020-05-18 15:00:00 20.4 12 Oeste 22 Oeste 0 -- -- 61
2020-05-18 14:00:00 19.7 10 Oeste 21 Oeste 0 -- -- 65
2020-05-18 13:00:00 19.3 8 Oeste 19 Sur 0 -- -- 65
2020-05-18 12:00:00 17.9 5 Sudoeste 16 Noroeste 0 -- -- 61
2020-05-18 11:00:00 15.9 3 Noroeste 11 Oeste 0 -- -- 66
2020-05-18 10:00:00 14.5 2 Oeste 6 Oeste 0 -- -- 64
2020-05-18 09:00:00 13.2 0 Calma 6 Norte 0 -- -- 71
2020-05-18 08:00:00 12.4 4 Norte 5 Nordeste 0 -- -- 73
2020-05-18 07:00:00 12.1 0 Calma 7 Nordeste 0 -- -- 72
2020-05-18 06:00:00 12.1 0 Calma 5 Norte 0 -- -- 80
2020-05-18 05:00:00 12 4 Nordeste 6 Nordeste 0 -- -- 82
2020-05-18 04:00:00 12.1 2 Noroeste 5 Noroeste 0 -- -- 80
2020-05-18 03:00:00 12.3 2 Nordeste 5 Nordeste 0 -- -- 84
2020-05-18 02:00:00 12.6 4 Nordeste 10 Nordeste 0 -- -- 85
2020-05-18 01:00:00 12.8 0 Calma 7 Oeste 0 -- -- 85
2020-05-18 00:00:00 13.2 3 Sudoeste 8 Sudoeste 0 -- -- 83
2020-05-17 23:00:00 13.9 5 Oeste 9 Oeste 0 -- -- 79
2020-05-17 22:00:00 14.4 4 Sudoeste 9 Nordeste 0 -- -- 79
2020-05-17 21:00:00 15.2 4 Sudoeste 17 Oeste 0 -- -- 79
2020-05-17 20:00:00 16.4 6 Oeste 20 Oeste 0 -- -- 73
2020-05-17 19:00:00 17.5 11 Oeste 23 Oeste 0 -- -- 67
2020-05-17 18:00:00 18.8 13 Oeste 32 Oeste 0 -- -- 60
2020-05-17 17:00:00 19.7 16 Oeste 33 Oeste 0 -- -- 57
2020-05-17 16:00:00 21.3 17 Oeste 31 Sudoeste 0 -- -- 52
2020-05-17 15:00:00 19.4 11 Sudoeste 22 Sudoeste 0 -- -- 53
2020-05-17 14:00:00 19.4 11 Oeste 27 Oeste 0 -- -- 54
2020-05-17 13:00:00 19.5 12 Oeste 28 Oeste 0 -- -- 55
2020-05-17 12:00:00 18.5 12 Oeste 31 Oeste 0 -- -- 57
2020-05-17 11:00:00 16.7 8 Oeste 22 Sudoeste 0 -- -- 64
2020-05-17 10:00:00 15.4 6 Noroeste 13 Oeste 0 -- -- 66
2020-05-17 09:00:00 13.6 6 Oeste 8 Oeste 0 -- -- 70
2020-05-17 08:00:00 12.7 4 Oeste 8 Sudoeste 0 -- -- 73
2020-05-17 07:00:00 12.2 3 Oeste 6 Sudoeste 0 -- -- 75
2020-05-17 06:00:00 13 2 Oeste 6 Sudoeste 0 -- -- 77
2020-05-17 05:00:00 13.1 3 Oeste 7 Sur 0 -- -- 78
2020-05-17 04:00:00 13.1 4 Sudoeste 10 Sur 0 -- -- 74
2020-05-17 03:00:00 13.1 6 Sur 10 Sudoeste 0 -- -- 80
2020-05-17 02:00:00 13.2 6 Sudoeste 9 Sudoeste 0 -- -- 81
2020-05-17 01:00:00 13.2 3 Sudoeste 9 Oeste 0 -- -- 75
2020-05-17 00:00:00 13.4 6 Oeste 10 Sudoeste 0 -- -- 69
2020-05-16 23:00:00 13.4 8 Sur 11 Sur 0 -- -- 78
2020-05-16 22:00:00 13.8 7 Sur 18 Sudoeste 0 -- -- 71
2020-05-16 21:00:00 14.5 10 Oeste 22 Oeste 0 -- -- 64
2020-05-16 20:00:00 16.7 12 Oeste 25 Sudoeste 0 -- -- 62
2020-05-16 19:00:00 17.8 13 Oeste 33 Oeste 0 -- -- 57
2020-05-16 18:00:00 18.4 15 Oeste 33 Oeste 0 -- -- 54
2020-05-16 17:00:00 20.4 14 Oeste 42 Oeste 0 -- -- 50
2020-05-16 16:00:00 21.7 19 Oeste 36 Oeste 0 -- -- 46
2020-05-16 15:00:00 21.2 16 Oeste 37 Oeste 0 -- -- 47
2020-05-16 14:00:00 20.6 15 Oeste 28 Oeste 0 -- -- 48
2020-05-16 13:00:00 18.4 13 Sudoeste 22 Sudoeste 0 -- -- 53
2020-05-16 12:00:00 18 9 Oeste 22 Oeste 0 -- -- 49
2020-05-16 11:00:00 16.6 17 Sudoeste 26 Sudoeste 0 -- -- 58
2020-05-16 10:00:00 15 13 Noroeste 27 Norte 0 -- -- 59
2020-05-16 09:00:00 12.6 8 Noroeste 16 Noroeste 0 -- -- 70
2020-05-16 08:00:00 11.8 5 Norte 18 Noroeste 0 -- -- 78
2020-05-16 07:00:00 11.9 4 Norte 33 Norte 0 -- -- 79
2020-05-16 06:00:00 12 10 Norte 24 Noroeste 0 -- -- 66
2020-05-16 05:00:00 12.6 4 Nordeste 22 Norte 0 -- -- 70
2020-05-16 04:00:00 12.5 8 Nordeste 22 Norte 0 -- -- 66
2020-05-16 03:00:00 13 14 Norte 22 Norte 0 -- -- 66
2020-05-16 02:00:00 13.4 3 Nordeste 25 Norte 0 -- -- 71
2020-05-16 01:00:00 12.7 6 Nordeste 14 Nordeste 0 -- -- 70
2020-05-16 00:00:00 13.4 2 Nordeste 9 Este 0 -- -- 81
2020-05-15 23:00:00 13.6 0 Calma 14 Norte 0 -- -- 67
2020-05-15 22:00:00 14.4 7 Noroeste 23 Noroeste 0 -- -- 59
2020-05-15 21:00:00 15.8 16 Noroeste 34 Noroeste 0 -- -- 57
2020-05-15 20:00:00 19.3 12 Noroeste 37 Oeste 0 -- -- 46
2020-05-15 19:00:00 20.8 20 Oeste 35 Oeste 0 -- -- 43
2020-05-15 18:00:00 21.7 21 Sudoeste 47 Noroeste 0 -- -- 44
2020-05-15 17:00:00 20.5 24 Noroeste 55 Noroeste 0 -- -- 45
2020-05-15 16:00:00 21 26 Noroeste 43 Noroeste 0 -- -- 47
2020-05-15 15:00:00 21.1 19 Oeste 41 Noroeste 0 -- -- 46
2020-05-15 14:00:00 17.6 11 Oeste 33 Oeste 0 -- -- 60
2020-05-15 13:00:00 17.7 19 Oeste 36 Sudoeste 0 -- -- 62
2020-05-15 12:00:00 16.1 13 Oeste 24 Oeste 0 -- -- 66
2020-05-15 11:00:00 15.6 10 Sudoeste 27 Noroeste 0 -- -- 55
2020-05-15 10:00:00 15.9 12 Norte 28 Noroeste 0 -- -- 59
2020-05-15 09:00:00 14.6 10 Noroeste 44 Noroeste 0 -- -- 63
2020-05-15 08:00:00 13 27 Norte 54 Nordeste 0 -- -- 62
2020-05-15 07:00:00 12 19 Norte 40 Nordeste 0 -- -- 56
2020-05-15 06:00:00 12.2 23 Norte 45 Nordeste 0 -- -- 59
2020-05-15 05:00:00 12.5 9 Nordeste 45 Norte 0 -- -- 52
2020-05-15 04:00:00 11.7 26 Noroeste 73 Norte 0 -- -- 64
2020-05-15 03:00:00 12 43 Norte 66 Noroeste 0 -- -- 64
2020-05-15 02:00:00 12.6 23 Noroeste 43 Noroeste 0 -- -- 68
2020-05-15 01:00:00 13 18 Noroeste 40 Noroeste 0 -- -- 66
2020-05-15 00:00:00 13.1 20 Norte 42 Nordeste 0 -- -- 63
2020-05-14 23:00:00 13.1 10 Noroeste 58 Oeste 0 -- -- 66
2020-05-14 22:00:00 13.5 26 Noroeste 55 Noroeste 0 -- -- 64
2020-05-14 21:00:00 14.1 27 Norte 49 Noroeste 0 -- -- 55
2020-05-14 20:00:00 16.4 21 Noroeste 49 Noroeste 0 -- -- 56
2020-05-14 19:00:00 16.8 18 Norte 34 Nordeste 0 -- -- 58
2020-05-14 18:00:00 17 7 Sudoeste 21 Sur 0 -- -- 61
2020-05-14 17:00:00 17.3 5 Sur 25 Sur 0 -- -- 61
2020-05-14 16:00:00 17.4 14 Sudoeste 26 Sudoeste 0 -- -- 62
2020-05-14 15:00:00 18.2 12 Sudoeste 28 Sudoeste 0 -- -- 62
2020-05-14 14:00:00 21.1 14 Sudoeste 26 Sudoeste 0 -- -- 54
2020-05-14 13:00:00 18.3 13 Sudoeste 27 Sudoeste 0 -- -- 62
2020-05-14 12:00:00 17.6 14 Sur 26 Sur 0 -- -- 66
2020-05-14 11:00:00 17.4 7 Oeste 17 Nordeste 0 -- -- 61
2020-05-14 10:00:00 15.8 6 Sudeste 19 Nordeste 0 -- -- 59
2020-05-14 09:00:00 14.3 12 Norte 29 Nordeste 0 -- -- 64
2020-05-14 08:00:00 13.4 16 Norte 28 Norte 0 -- -- 63
2020-05-14 07:00:00 13.1 15 Noroeste 26 Norte 0 -- -- 62
2020-05-14 06:00:00 12.7 5 Noroeste 31 Noroeste 0 -- -- 61
2020-05-14 05:00:00 12.8 9 Norte 17 Nordeste 0 -- -- 57
2020-05-14 04:00:00 12.8 3 Nordeste 16 Nordeste 0 -- -- 61
2020-05-14 03:00:00 13.6 5 Nordeste 26 Nordeste 0 -- -- 53
2020-05-14 02:00:00 12.8 7 Noroeste 28 Norte 0 -- -- 56
2020-05-14 01:00:00 13.1 9 Oeste 18 Oeste 0 -- -- 64
2020-05-14 00:00:00 13.6 7 Sudoeste 17 Noroeste 0 -- -- 67
2020-05-13 23:00:00 14.3 3 Norte 26 Norte 0 -- -- 61
2020-05-13 22:00:00 15.3 8 Oeste 15 Oeste 0 -- -- 63
2020-05-13 21:00:00 16 6 Oeste 22 Sur 0 -- -- 77
2020-05-13 20:00:00 17.2 15 Sur 22 Sur 0 -- -- 72
2020-05-13 19:00:00 19.3 14 Sur 28 Sur 0 -- -- 66
2020-05-13 18:00:00 20.5 14 Sur 29 Sur 0 -- -- 62
2020-05-13 17:00:00 20.1 15 Sudoeste 29 Sudoeste 0 -- -- 63
2020-05-13 16:00:00 20 15 Sur 29 Sur 0 -- -- 63
2020-05-13 15:00:00 21.8 14 Sudoeste 28 Sudoeste 0 -- -- 54
2020-05-13 14:00:00 20.9 15 Sur 39 Noroeste 0 -- -- 57
2020-05-13 13:00:00 21.8 15 Oeste 40 Noroeste 0 -- -- 36
2020-05-13 12:00:00 20.2 11 Norte 42 Noroeste 0 -- -- 48
2020-05-13 11:00:00 17 17 Noroeste 28 Noroeste 0 -- -- 61
2020-05-13 10:00:00 15.5 4 Oeste 8 Norte 0 -- -- 70
2020-05-13 09:00:00 14.1 4 Oeste 17 Sudoeste 0 -- -- 77
2020-05-13 08:00:00 13.3 2 Oeste 16 Sur 0 -- -- 79
2020-05-13 07:00:00 13 8 Norte 20 Noroeste 0 -- -- 91
2020-05-13 06:00:00 13.4 3 Sudoeste 12 Sudoeste 0 -- -- 93
2020-05-13 05:00:00 13.2 6 Oeste 9 Sudoeste 0 -- -- 93
2020-05-13 04:00:00 13.2 6 Oeste 15 Oeste 0 -- -- 91
2020-05-13 03:00:00 13.2 8 Noroeste 26 Noroeste 0 -- -- 83
2020-05-13 02:00:00 13.6 8 Oeste 13 Noroeste 0 -- -- 90
2020-05-13 01:00:00 13.6 13 Noroeste 24 Noroeste 0 -- -- 81
2020-05-13 00:00:00 13.9 5 Noroeste 29 Norte 0 -- -- 84
2020-05-12 23:00:00 14.5 8 Noroeste 32 Norte 0 -- -- 77
2020-05-12 22:00:00 15.3 10 Noroeste 28 Noroeste 0 -- -- 71
2020-05-12 21:00:00 16.3 16 Noroeste 43 Noroeste 0 -- -- 65
2020-05-12 20:00:00 19.5 15 Noroeste 34 Norte 0 -- -- 55
2020-05-12 19:00:00 21.8 16 Oeste 29 Oeste 0 -- -- 52
2020-05-12 18:00:00 21.8 14 Oeste 27 Oeste 0 -- -- 52
2020-05-12 17:00:00 20.5 13 Sudoeste 24 Norte 0 -- -- 60
2020-05-12 16:00:00 18.6 12 Sur 26 Sudoeste 0 -- -- 67
2020-05-12 15:00:00 18.8 14 Sur 28 Sur 0 -- -- 65
2020-05-12 14:00:00 21.2 16 Sudoeste 29 Oeste 0 -- -- 49
2020-05-12 13:00:00 20.3 16 Noroeste 30 Noroeste 0 -- -- 48
2020-05-12 12:00:00 18 13 Noroeste 30 Noroeste 0 -- -- 54
2020-05-12 11:00:00 17.1 18 Noroeste 30 Noroeste 0 -- -- 60
2020-05-12 10:00:00 17.2 13 Norte 28 Norte 0 -- -- 61
2020-05-12 09:00:00 14.8 13 Norte 32 Noroeste 0 -- -- 67
2020-05-12 08:00:00 13.5 16 Norte 37 Noroeste 0 -- -- 67
2020-05-12 07:00:00 13.2 18 Norte 39 Norte 0 -- -- 60
2020-05-12 06:00:00 13.1 15 Norte 33 Norte 0 -- -- 62
2020-05-12 05:00:00 13.4 24 Norte 37 Norte 0 -- -- 61
2020-05-12 04:00:00 13.5 5 Este 30 Nordeste 0 -- -- 58
2020-05-12 03:00:00 13.9 14 Norte 35 Norte 0 -- -- 59
2020-05-12 02:00:00 13.6 8 Noroeste 18 Oeste 0 -- -- 64
2020-05-12 01:00:00 14.8 4 Oeste 9 Oeste 0 -- -- 91
2020-05-12 00:00:00 14.9 3 Noroeste 9 Nordeste 0 -- -- 87
2020-05-11 23:00:00 15.7 4 Noroeste 17 Norte 0 -- -- 86
2020-05-11 22:00:00 16.4 4 Noroeste 11 Oeste 0 -- -- 85
2020-05-11 21:00:00 17.4 4 Oeste 17 Oeste 0 -- -- 80
2020-05-11 20:00:00 19.6 8 Oeste 17 Oeste 0 -- -- 72
2020-05-11 19:00:00 19.8 9 Oeste 19 Oeste 0 -- -- 72
2020-05-11 18:00:00 20.9 9 Oeste 21 Sudoeste 0 -- -- 66
2020-05-11 17:00:00 22.1 13 Sudoeste 27 Noroeste 0 -- -- 64
2020-05-11 16:00:00 22.7 10 Oeste 22 Sudoeste 0 -- -- 61
2020-05-11 15:00:00 19.6 12 Sudoeste 27 Sudoeste 0 -- -- 73
2020-05-11 14:00:00 18.8 13 Sur 25 Sur 0 -- -- 77
2020-05-11 13:00:00 18.8 12 Sudoeste 23 Sudoeste 0 -- -- 77
2020-05-11 12:00:00 17.7 8 Sudoeste 15 Sur 0 -- -- 81
2020-05-11 11:00:00 16.9 5 Sudoeste 10 Sudoeste 0 -- -- 83
2020-05-11 10:00:00 15.6 3 Oeste 9 Sudoeste 0 -- -- 87
2020-05-11 09:00:00 14 3 Oeste 9 Oeste 0 -- -- 87
2020-05-11 08:00:00 13.3 3 Este 19 Este 0 -- -- 91
2020-05-11 07:00:00 13.2 12 Este 22 Este 0 -- -- 92
2020-05-11 06:00:00 13.1 13 Nordeste 19 Este 0 -- -- 93
2020-05-11 05:00:00 13.5 4 Nordeste 10 Oeste 0 -- -- 92
2020-05-11 04:00:00 13.9 7 Noroeste 14 Oeste 0 -- -- 91
2020-05-11 03:00:00 14.7 8 Oeste 12 Oeste 0 -- -- 92
2020-05-11 02:00:00 14.8 3 Oeste 10 Este 0 -- -- 90
2020-05-11 01:00:00 15.2 4 Nordeste 18 Este 0 -- -- 85
2020-05-11 00:00:00 15.1 12 Este 16 Este 0 -- -- 88
2020-05-10 23:00:00 15.7 4 Oeste 14 Oeste 0 -- -- 87
2020-05-10 22:00:00 16.3 7 Oeste 11 Norte 0 -- -- 83
2020-05-10 21:00:00 18.2 4 Norte 14 Oeste 0 -- -- 75
2020-05-10 20:00:00 20.4 9 Oeste 19 Sur 0 -- -- 67
2020-05-10 19:00:00 22 9 Oeste 24 Oeste 0 -- -- 61
2020-05-10 18:00:00 22.3 12 Oeste 26 Oeste 0 -- -- 60
2020-05-10 17:00:00 23 15 Oeste 29 Oeste 0 -- -- 57
2020-05-10 16:00:00 22.9 15 Oeste 28 Sudoeste 0 -- -- 58
2020-05-10 15:00:00 20.8 13 Oeste 24 Sudoeste 0 -- -- 63
2020-05-10 14:00:00 20.2 11 Sudoeste 24 Sudoeste 0 -- -- 64
2020-05-10 13:00:00 20.3 10 Oeste 22 Sudoeste 0 -- -- 66
2020-05-10 12:00:00 18 9 Sudoeste 19 Sudeste 0 -- -- 76
2020-05-10 11:00:00 16.9 9 Sur 14 Sur 0 -- -- 82
2020-05-10 10:00:00 15.5 2 Oeste 6 Sudoeste 0 -- -- 87
2020-05-10 09:00:00 14.4 4 Norte 9 Noroeste 0 -- -- 90
2020-05-10 08:00:00 13.5 3 Noroeste 5 Noroeste 0 -- -- 94
2020-05-10 07:00:00 13.4 0 Calma 4 Norte 0 -- -- 91
2020-05-10 06:00:00 13.5 2 Norte 14 Nordeste 0 -- -- 89
2020-05-10 05:00:00 13.4 8 Este 11 Nordeste 0 -- -- 90
2020-05-10 04:00:00 13.8 0 Calma 8 Oeste 0 -- -- 93
2020-05-10 03:00:00 13.4 3 Sudoeste 8 Sudoeste 0 -- -- 91
2020-05-10 02:00:00 13.7 0 Calma 8 Este 0 -- -- 91
2020-05-10 01:00:00 14 3 Nordeste 9 Este 0 -- -- 89
2020-05-10 00:00:00 14.6 2 Oeste 14 Sudoeste 0 -- -- 90
2020-05-09 23:00:00 15.2 5 Oeste 9 Sur 0 -- -- 90
2020-05-09 22:00:00 15.8 6 Sudoeste 12 Sudoeste 0 -- -- 87
2020-05-09 21:00:00 16.9 6 Oeste 17 Oeste 0 -- -- 81
2020-05-09 20:00:00 20.5 11 Oeste 21 Noroeste 0 -- -- 69
2020-05-09 19:00:00 21.8 11 Oeste 21 Oeste 0 -- -- 66
2020-05-09 18:00:00 21.4 12 Oeste 23 Sudoeste 0 -- -- 65
2020-05-09 17:00:00 20.7 10 Oeste 19 Oeste 0 -- -- 72
2020-05-09 16:00:00 18.6 7 Oeste 19 Sudoeste 0 -- -- 76
2020-05-09 15:00:00 18.8 12 Sudoeste 18 Sudoeste 0 -- -- 75
2020-05-09 14:00:00 18.9 9 Sudoeste 26 Sur 0 -- -- 73
2020-05-09 13:00:00 19.1 11 Sudoeste 17 Sur 0 -- -- 73
2020-05-09 12:00:00 19.8 5 Oeste 13 Oeste 0 -- -- 71
2020-05-09 11:00:00 17.6 4 Oeste 9 Sudoeste 0 -- -- 76
2020-05-09 10:00:00 15.8 0 Calma 6 Sur 0 -- -- 80
2020-05-09 09:00:00 14.7 0 Calma 6 Nordeste 0 -- -- 68
2020-05-09 08:00:00 13.5 3 Nordeste 9 Sur 0 -- -- 72
2020-05-09 07:00:00 14.5 0 Calma 6 Sudeste 0 -- -- 62
2020-05-09 06:00:00 13.5 3 Nordeste 10 Este 0 -- -- 70
2020-05-09 05:00:00 12.5 3 Nordeste 12 Este 0 -- -- 88
2020-05-09 04:00:00 12.9 0 Calma 4 Sur 0 -- -- 94
2020-05-09 03:00:00 13.1 0 Calma 6 Norte 0 -- -- 93
2020-05-09 02:00:00 13.2 0 Calma 6 Sur 0 -- -- 91
2020-05-09 01:00:00 13.7 0 Calma 5 Noroeste 0 -- -- 90
2020-05-09 00:00:00 14.4 4 Norte 6 Nordeste 0 -- -- 90
2020-05-08 23:00:00 14.7 3 Sudoeste 9 Oeste 0 -- -- 89
2020-05-08 22:00:00 15.3 2 Oeste 9 Sudoeste 0 -- -- 87
2020-05-08 21:00:00 15.8 6 Sudoeste 17 Oeste 0 -- -- 85
2020-05-08 20:00:00 17.5 8 Sudoeste 23 Oeste 0 -- -- 79
2020-05-08 19:00:00 20.6 13 Oeste 28 Sudoeste 0 -- -- 67
2020-05-08 18:00:00 21.6 14 Oeste 29 Oeste 0 -- -- 62
2020-05-08 17:00:00 21.6 12 Oeste 23 Oeste 0 -- -- 61
2020-05-08 16:00:00 19 9 Oeste 25 Oeste 0 -- -- 71
2020-05-08 15:00:00 20.3 13 Oeste 24 Oeste 0 -- -- 67
2020-05-08 14:00:00 18.4 9 Oeste 20 Sudoeste 0 -- -- 74
2020-05-08 13:00:00 18.6 9 Sudoeste 17 Sudoeste 0 -- -- 71
2020-05-08 12:00:00 17.5 9 Sudoeste 24 Sudoeste 0 -- -- 73
2020-05-08 11:00:00 17 8 Sur 18 Sur 0 -- -- 70
2020-05-08 10:00:00 15.2 3 Sudoeste 6 Sudoeste 0 -- -- 73
2020-05-08 09:00:00 13.3 0 Calma 5 Nordeste 0 -- -- 82
2020-05-08 08:00:00 12.4 3 Este 5 Este 0 -- -- 84
2020-05-08 07:00:00 12.3 3 Este 9 Nordeste 0 -- -- 83
2020-05-08 06:00:00 12.4 4 Nordeste 10 Este 0 -- -- 85
2020-05-08 05:00:00 12.4 4 Este 6 Este 0 -- -- 86
2020-05-08 04:00:00 12.4 0 Calma 6 Nordeste 0 -- -- 87
2020-05-08 03:00:00 12.6 0 Calma 10 Nordeste 0 -- -- 81
2020-05-08 02:00:00 12.8 6 Nordeste 10 Este 0 -- -- 90
2020-05-08 01:00:00 13.1 8 Nordeste 13 Este 0 -- -- 88
2020-05-08 00:00:00 13.5 7 Sudeste 11 Oeste 0 -- -- 89
2020-05-07 23:00:00 14.3 8 Sudoeste 15 Oeste 0 -- -- 88
2020-05-07 22:00:00 14.8 9 Oeste 16 Oeste 0 -- -- 87
2020-05-07 21:00:00 15 6 Oeste 14 Sudoeste 0 -- -- 85
2020-05-07 20:00:00 16.4 8 Sudoeste 19 Sur 0 -- -- 80
2020-05-07 19:00:00 16.2 10 Sur 22 Sur 0 -- -- 81
2020-05-07 18:00:00 15.8 16 Sur 21 Sur 0 -- -- 83
2020-05-07 17:00:00 17.9 8 Sudoeste 22 Sudoeste 0 -- -- 74
2020-05-07 16:00:00 17.3 10 Oeste 23 Oeste 0 -- -- 77
2020-05-07 15:00:00 17.6 11 Oeste 27 Oeste 0 -- -- 74
2020-05-07 14:00:00 17.1 11 Oeste 23 Oeste 0 -- -- 75
2020-05-07 13:00:00 16.5 10 Oeste 20 Oeste 0 -- -- 78
2020-05-07 12:00:00 16.4 10 Sudoeste 21 Sur 0 -- -- 79
2020-05-07 11:00:00 15.4 9 Sur 17 Sur 0 -- -- 80
2020-05-07 10:00:00 15.1 6 Sudoeste 11 Sudoeste 0 -- -- 83
2020-05-07 09:00:00 12.6 3 Sur 7 Sudeste 0 -- -- 90
2020-05-07 08:00:00 12.2 0 Calma 4 Nordeste 0 -- -- 93
2020-05-07 07:00:00 12.1 0 Calma 9 Nordeste 0 -- -- 91
2020-05-07 06:00:00 12.2 0 Calma 8 Nordeste 0 -- -- 90
2020-05-07 05:00:00 12.7 0 Calma 4 Sudoeste 0 -- -- 92
2020-05-07 04:00:00 13 0 Calma 8 Sudoeste 0 -- -- 91
2020-05-07 03:00:00 13.6 3 Sudoeste 12 Oeste 0 -- -- 90
2020-05-07 02:00:00 14.4 5 Oeste 13 Sudoeste 0 -- -- 90
2020-05-07 01:00:00 14.9 5 Oeste 9 Oeste 0 -- -- 90
2020-05-07 00:00:00 14.9 4 Oeste 9 Sudoeste 0 -- -- 88
2020-05-06 23:00:00 15.2 2 Sudeste 9 Norte 0 -- -- 84
2020-05-06 22:00:00 15.6 3 Oeste 9 Sudoeste 0 -- -- 84
2020-05-06 21:00:00 16 5 Sudoeste 19 Oeste 0 -- -- 81
2020-05-06 20:00:00 19.5 13 Oeste 25 Oeste 0 -- -- 66
2020-05-06 19:00:00 21.3 14 Oeste 28 Oeste 0 -- -- 59
2020-05-06 18:00:00 21.6 15 Oeste 24 Oeste 0 -- -- 59
2020-05-06 17:00:00 22.6 15 Oeste 27 Sudoeste 0 -- -- 54
2020-05-06 16:00:00 21.2 14 Sudoeste 28 Sur 0 -- -- 59
2020-05-06 15:00:00 20.5 10 Oeste 26 Oeste 0 -- -- 64
2020-05-06 14:00:00 21 10 Oeste 20 Oeste 0 -- -- 62
2020-05-06 13:00:00 19.8 10 Oeste 20 Oeste 0 -- -- 66
2020-05-06 12:00:00 18.8 7 Oeste 18 Oeste 0 -- -- 69
2020-05-06 11:00:00 16.6 5 Sudoeste 13 Sudoeste 0 -- -- 78
2020-05-06 10:00:00 15.5 5 Sudoeste 15 Este 0 -- -- 82
2020-05-06 09:00:00 13.5 3 Sur 7 Sudeste 0 -- -- 85
2020-05-06 08:00:00 12.2 4 Nordeste 6 Este 0 -- -- 92
2020-05-06 07:00:00 12.2 3 Noroeste 6 Nordeste 0 -- -- 91
2020-05-06 06:00:00 12 5 Norte 10 Este 0 -- -- 92
2020-05-06 05:00:00 12.7 12 Este 13 Este 0 -- -- 91
2020-05-06 04:00:00 12.6 2 Norte 4 Oeste 0 -- -- 92
2020-05-06 03:00:00 12.8 2 Noroeste 5 Nordeste 0 -- -- 90
2020-05-06 02:00:00 13.4 0 Calma 12 Nordeste 0 -- -- 89
2020-05-06 01:00:00 13.8 11 Este 13 Este 0 -- -- 88
2020-05-06 00:00:00 14.2 0 Calma 12 Este 0 -- -- 86
2020-05-05 23:00:00 14.6 0 Calma 4 Este 0 -- -- 83
2020-05-05 22:00:00 15.2 3 Oeste 8 Sudoeste 0 -- -- 81
2020-05-05 21:00:00 16.6 3 Oeste 13 Oeste 0 -- -- 75
2020-05-05 20:00:00 19.4 8 Oeste 21 Oeste 0 -- -- 66
2020-05-05 19:00:00 20.8 13 Oeste 28 Oeste 0 -- -- 62
2020-05-05 18:00:00 21.2 16 Oeste 31 Oeste 0 -- -- 61
2020-05-05 17:00:00 21.7 16 Oeste 33 Oeste 0 -- -- 59
2020-05-05 16:00:00 20.5 15 Oeste 28 Oeste 0 -- -- 64
2020-05-05 15:00:00 20 14 Oeste 27 Oeste 0 -- -- 65
2020-05-05 14:00:00 19.1 12 Oeste 24 Oeste 0 -- -- 68
2020-05-05 13:00:00 18.3 8 Oeste 19 Oeste 0 -- -- 73
2020-05-05 12:00:00 18.2 7 Sudoeste 18 Sur 0 -- -- 74
2020-05-05 11:00:00 18 6 Oeste 13 Sur 0 -- -- 75
2020-05-05 10:00:00 15.7 4 Sudoeste 10 Sur 0 -- -- 84
2020-05-05 09:00:00 13.6 0 Calma 4 Sur 0 -- -- 83
2020-05-05 08:00:00 12.6 2 Noroeste 7 Noroeste 0 -- -- 87
2020-05-05 07:00:00 12.4 3 Noroeste 7 Noroeste 0 -- -- 87
2020-05-05 06:00:00 13.1 0 Calma 5 Norte 0 -- -- 86
2020-05-05 05:00:00 13.5 0 Calma 5 Nordeste 0 -- -- 85
2020-05-05 04:00:00 13.6 3 Nordeste 5 Nordeste 0 -- -- 85
2020-05-05 03:00:00 13.7 3 Nordeste 5 Nordeste 0 -- -- 88
2020-05-05 02:00:00 14 0 Calma 4 Norte 0 -- -- 87
2020-05-05 01:00:00 14.3 0 Calma -- -- 0 -- -- 85
2020-05-05 00:00:00 14.5 0 Calma 4 Nordeste 0 -- -- 85
2020-05-04 23:00:00 15.2 0 Calma 5 Oeste 0 -- -- 88
2020-05-04 22:00:00 15.4 3 Oeste 10 Oeste 0 -- -- 87
2020-05-04 21:00:00 15.4 6 Sudoeste 13 Sudoeste 0 -- -- 89
2020-05-04 20:00:00 16.2 4 Sudoeste 14 Oeste 0 -- -- 86
2020-05-04 19:00:00 16.2 6 Sudoeste 18 Sudoeste 0 -- -- 85
2020-05-04 18:00:00 16.2 12 Sur 20 Sur 0 -- -- 87
2020-05-04 17:00:00 17.6 9 Sudoeste 21 Sudoeste 0 -- -- 81
2020-05-04 16:00:00 18 10 Sudoeste 19 Sudoeste 0 -- -- 78
2020-05-04 15:00:00 19.3 11 Sudoeste 18 Sudoeste 0 -- -- 73
2020-05-04 14:00:00 21.1 11 Oeste 23 Sudoeste 0 -- -- 67
2020-05-04 13:00:00 19.9 10 Sudoeste 22 Sudoeste 0 -- -- 72
2020-05-04 12:00:00 20 8 Oeste 15 Oeste 0 -- -- 68
2020-05-04 11:00:00 18.4 5 Oeste 10 Oeste 0 -- -- 70
2020-05-04 10:00:00 16.7 2 Oeste 9 Sudoeste 0 -- -- 71
2020-05-04 09:00:00 14.8 0 Calma 5 Sudeste 0 -- -- 77
2020-05-04 08:00:00 14 4 Este 9 Este 0 -- -- 82
2020-05-04 07:00:00 13.9 8 Este 17 Este 0 -- -- 85
2020-05-04 06:00:00 14.1 11 Este 15 Este 0 -- -- 84
2020-05-04 05:00:00 15.1 3 Sudeste 10 Sudoeste 0 -- -- 70
2020-05-04 04:00:00 16.2 3 Sudoeste 16 Noroeste 0 -- -- 55
2020-05-04 03:00:00 16.3 8 Noroeste 16 Noroeste 0 -- -- 47
2020-05-04 02:00:00 16.9 5 Noroeste 14 Oeste 0 -- -- 45
2020-05-04 01:00:00 17.5 7 Noroeste 12 Sudoeste 0 -- -- 39
2020-05-04 00:00:00 18.7 6 Oeste 13 Oeste 0 -- -- 33
2020-05-03 23:00:00 19.6 4 Noroeste 6 Norte 0 -- -- 22
2020-05-03 22:00:00 20.1 3 Noroeste 8 Noroeste 0 -- -- 29
2020-05-03 21:00:00 22.3 5 Oeste 18 Oeste 0 -- -- 26
2020-05-03 20:00:00 26.1 10 Oeste 18 Oeste 0 -- -- 23
2020-05-03 19:00:00 28.3 11 Oeste 28 Oeste 0 -- -- 31
2020-05-03 18:00:00 29.1 15 Oeste 33 Oeste 0 -- -- 20
2020-05-03 17:00:00 29.5 21 Oeste 32 Oeste 0 -- -- 14
2020-05-03 16:00:00 29.5 14 Noroeste 29 Oeste 0 -- -- 17
2020-05-03 15:00:00 28 10 Oeste 20 Sudoeste 0 -- -- 31
2020-05-03 14:00:00 26.1 7 Noroeste 15 Oeste 0 -- -- 43
2020-05-03 13:00:00 24.9 7 Oeste 16 Oeste 0 -- -- 49
2020-05-03 12:00:00 24.3 3 Sudoeste 17 Sudoeste 0 -- -- 41
2020-05-03 11:00:00 21.3 3 Norte 9 Sudoeste 0 -- -- 48
2020-05-03 10:00:00 22.7 6 Oeste 12 Oeste 0 -- -- 10
2020-05-03 09:00:00 19.3 0 Calma 14 Oeste 0 -- -- 15
2020-05-03 08:00:00 19.9 6 Norte 12 Norte 0 -- -- 7
2020-05-03 07:00:00 18.4 0 Calma 8 Noroeste 0 -- -- 11
2020-05-03 06:00:00 18.4 5 Noroeste 16 Sudoeste 0 -- -- 15
2020-05-03 05:00:00 21.4 6 Oeste 14 Sudoeste 0 -- -- 7
2020-05-03 04:00:00 20.6 4 Noroeste 12 Sur 0 -- -- 10
2020-05-03 03:00:00 20.6 4 Sur 12 Nordeste 0 -- -- 10
2020-05-03 02:00:00 19.7 4 Nordeste 7 Nordeste 0 -- -- 30
2020-05-03 01:00:00 20.7 4 Sudoeste 13 Sudoeste 0 -- -- 27
2020-05-03 00:00:00 21.7 3 Noroeste 19 Sur 0 -- -- 23
2020-05-02 23:00:00 23.1 5 Sudoeste 19 Sur 0 -- -- 21
2020-05-02 22:00:00 23.2 4 Sudeste 19 Sudoeste 0 -- -- 23
2020-05-02 21:00:00 23.8 4 Este 13 Sur 0 -- -- 25
2020-05-02 20:00:00 26.5 5 Oeste 17 Sudoeste 0 -- -- 24
2020-05-02 19:00:00 27.1 8 Oeste 15 Oeste 0 -- -- 34
2020-05-02 18:00:00 28.1 9 Oeste 17 Oeste 0 -- -- 38
2020-05-02 17:00:00 28.6 8 Oeste 19 Sur 0 -- -- 40
2020-05-02 16:00:00 28.2 10 Sudoeste 23 Este 0 -- -- 36
2020-05-02 15:00:00 27.7 12 Sur 24 Sur 0 -- -- 24
2020-05-02 14:00:00 26.5 8 Sudeste 23 Este 0 -- -- 24
2020-05-02 13:00:00 24.3 4 Oeste 13 Norte 0 -- -- 55
2020-05-02 12:00:00 23 5 Sudoeste 13 Sur 0 -- -- 57
2020-05-02 11:00:00 21.8 4 Oeste 8 Sudoeste 0 -- -- 59
2020-05-02 10:00:00 21.4 0 Calma 4 Nordeste 0 -- -- 35
2020-05-02 09:00:00 18.3 0 Calma 9 Este 0 -- -- 42
2020-05-02 08:00:00 18.8 3 Sur 17 Este 0 -- -- 47
2020-05-02 07:00:00 18.1 10 Nordeste 14 Nordeste 0 -- -- 28
2020-05-02 06:00:00 18.5 10 Este 12 Este 0 -- -- 38
2020-05-02 05:00:00 18.4 2 Sur 15 Este 0 -- -- 58
2020-05-02 04:00:00 17.6 10 Nordeste 13 Nordeste 0 -- -- 58
2020-05-02 03:00:00 17.4 5 Este 7 Este 0 -- -- 65
2020-05-02 02:00:00 17.1 6 Nordeste 9 Este 0 -- -- 72
2020-05-02 01:00:00 17.4 4 Sudeste 8 Sudeste 0 -- -- 72
2020-05-02 00:00:00 16.5 0 Calma 11 Nordeste 0 -- -- 79
2020-05-01 23:00:00 16.3 3 Este 13 Nordeste 0 -- -- 81
2020-05-01 22:00:00 17.3 6 Nordeste 13 Este 0 -- -- 76
2020-05-01 21:00:00 18.4 2 Norte 12 Oeste 0 -- -- 72
2020-05-01 20:00:00 21.1 6 Noroeste 17 Sudoeste 0 -- -- 64
2020-05-01 19:00:00 22.1 10 Oeste 20 Oeste 0 -- -- 60
2020-05-01 18:00:00 23.1 12 Oeste 24 Sudoeste 0 -- -- 56
2020-05-01 17:00:00 24.1 11 Oeste 26 Sudoeste 0 -- -- 52
2020-05-01 16:00:00 24.1 11 Oeste 20 Oeste 0 -- -- 54
2020-05-01 15:00:00 24.1 11 Oeste 23 Oeste 0 -- -- 55
2020-05-01 14:00:00 22.5 10 Oeste 20 Oeste 0 -- -- 59
2020-05-01 13:00:00 20.2 7 Oeste 23 Sur 0 -- -- 68
2020-05-01 12:00:00 18.6 11 Sur 21 Sudoeste 0 -- -- 72
2020-05-01 11:00:00 18.6 8 Sur 14 Sur 0 -- -- 69
2020-05-01 10:00:00 18 4 Sur 8 Sur 0 -- -- 52
2020-05-01 09:00:00 16.4 0 Calma 5 Norte 0 -- -- 41
2020-05-01 08:00:00 15.9 3 Norte 6 Sur 0 -- -- 42
2020-05-01 07:00:00 15.7 3 Sur 9 Sur 0 -- -- 41
2020-05-01 06:00:00 16.3 4 Sudeste 10 Nordeste 0 -- -- 41
2020-05-01 05:00:00 16.1 9 Nordeste 11 Este 0 -- -- 43
2020-05-01 04:00:00 16.4 5 Sudeste 11 Este 0 -- -- 44
2020-05-01 03:00:00 15.7 7 Nordeste 10 Este 0 -- -- 54
2020-05-01 02:00:00 16 6 Sudeste 12 Este 0 -- -- 54
2020-05-01 01:00:00 15.7 0 Calma 5 Sur 0 -- -- 67
2020-05-01 00:00:00 16.5 2 Sur 6 Nordeste 0 -- -- 59
2020-04-30 23:00:00 16.5 0 Calma 8 Este 0 -- -- 70
2020-04-30 22:00:00 17.2 3 Este 6 Oeste 0 -- -- 64
2020-04-30 21:00:00 18.5 3 Norte 16 Oeste 0 -- -- 61
2020-04-30 20:00:00 21.7 8 Oeste 21 Oeste 0 -- -- 50
2020-04-30 19:00:00 22.8 12 Oeste 22 Oeste 0 -- -- 46
2020-04-30 18:00:00 23.7 11 Oeste 23 Oeste 0 -- -- 43
2020-04-30 17:00:00 24.8 11 Oeste 24 Oeste 0 -- -- 41
2020-04-30 16:00:00 23.7 13 Oeste 24 Oeste 0 -- -- 45
2020-04-30 15:00:00 23.2 13 Oeste 26 Oeste 0 -- -- 49
2020-04-30 14:00:00 22.5 11 Oeste 24 Oeste 0 -- -- 51
2020-04-30 13:00:00 21.4 9 Sudoeste 19 Sudoeste 0 -- -- 57
2020-04-30 12:00:00 19.7 5 Oeste 13 Oeste 0 -- -- 57
2020-04-30 11:00:00 18 5 Oeste 14 Sudoeste 0 -- -- 55
2020-04-30 10:00:00 16.2 4 Sur 9 Sur 0 -- -- 54
2020-04-30 09:00:00 14 0 Calma 5 Sur 0 -- -- 59
2020-04-30 08:00:00 13.3 0 Calma 5 Sur 0 -- -- 64
2020-04-30 07:00:00 13.3 3 Nordeste 6 Nordeste 0 -- -- 63
2020-04-30 06:00:00 13.7 4 Sudeste 12 Este 0 -- -- 60
2020-04-30 05:00:00 13.5 8 Este 10 Este 0 -- -- 61
2020-04-30 04:00:00 14.1 0 Calma 7 Nordeste 0 -- -- 60
2020-04-30 03:00:00 13.4 0 Calma 8 Nordeste 0 -- -- 66
2020-04-30 02:00:00 12.5 0 Calma 7 Sudeste 0 -- -- 79
2020-04-30 01:00:00 12.3 3 Nordeste 17 Este 0 -- -- 89
2020-04-30 00:00:00 12.4 2 Noroeste 6 Noroeste 0 -- -- 89
2020-04-29 23:00:00 12.8 5 Norte 8 Noroeste 0 -- -- 87
2020-04-29 22:00:00 13.6 5 Norte 20 Este 0 -- -- 86
2020-04-29 21:00:00 15.2 6 Este 15 Sudoeste 0 -- -- 81
2020-04-29 20:00:00 18.5 6 Oeste 20 Oeste 0 -- -- 68
2020-04-29 19:00:00 19.9 11 Oeste 31 Sudoeste 0 -- -- 63
2020-04-29 18:00:00 19.4 14 Oeste 28 Oeste 0 -- -- 64
2020-04-29 17:00:00 17.1 13 Oeste 24 Noroeste 0 -- -- 73
2020-04-29 16:00:00 15.9 9 Oeste 23 Oeste 0 -- -- 79
2020-04-29 15:00:00 17.1 10 Sudoeste 22 Sur 0 -- -- 77
2020-04-29 14:00:00 19 8 Sudoeste 21 Sur 0 -- -- 71
2020-04-29 13:00:00 18.2 9 Sudoeste 21 Sudoeste 0 -- -- 74
2020-04-29 12:00:00 17.5 8 Oeste 15 Oeste 0 -- -- 74
2020-04-29 11:00:00 16 3 Oeste 9 Sudoeste 0 -- -- 77
2020-04-29 10:00:00 14.4 3 Sudoeste 10 Sur 0 -- -- 83
2020-04-29 09:00:00 14 4 Sudeste 8 Sudeste 0 -- -- 62
2020-04-29 08:00:00 13.2 2 Este 5 Nordeste 0 -- -- 66
2020-04-29 07:00:00 12.8 2 Nordeste 5 Nordeste 0 -- -- 74
2020-04-29 06:00:00 12.3 0 Calma 6 Noroeste 0 -- -- 76
2020-04-29 05:00:00 12.3 4 Nordeste 8 Este 0 -- -- 81
2020-04-29 04:00:00 11.8 5 Nordeste 7 Nordeste 0 -- -- 92
2020-04-29 03:00:00 12.3 2 Oeste 10 Norte 0 -- -- 93
2020-04-29 02:00:00 12.6 4 Noroeste 6 Noroeste 0 -- -- 92
2020-04-29 01:00:00 13.2 4 Sudoeste 8 Sudoeste 0 -- -- 92
2020-04-29 00:00:00 13.3 5 Sudoeste 8 Sudoeste 0 -- -- 92
2020-04-28 23:00:00 13.6 5 Sur 8 Sudoeste 0 -- -- 91
2020-04-28 22:00:00 14.2 5 Oeste 9 Oeste 0 -- -- 89
2020-04-28 21:00:00 14.3 7 Sudoeste 12 Sudoeste 0 -- -- 88
2020-04-28 20:00:00 15.4 5 Sudoeste 16 Oeste 0 -- -- 81
2020-04-28 19:00:00 16.4 8 Oeste 17 Oeste 0 -- -- 77
2020-04-28 18:00:00 16.4 8 Oeste 22 Oeste 0 -- -- 76
2020-04-28 17:00:00 17.2 7 Oeste 22 Oeste 0 -- -- 73
2020-04-28 16:00:00 17.7 10 Oeste 21 Oeste 0 -- -- 70
2020-04-28 15:00:00 16.8 10 Sudoeste 23 Oeste 0 -- -- 74
2020-04-28 14:00:00 17.1 8 Oeste 19 Oeste 0 -- -- 73
2020-04-28 13:00:00 17 10 Sudoeste 19 Sudoeste 0 -- -- 75
2020-04-28 12:00:00 17.7 12 Sur 20 Sudoeste 0 -- -- 74
2020-04-28 11:00:00 16.4 5 Sudoeste 18 Sur 0 -- -- 76
2020-04-28 10:00:00 14.7 6 Sudoeste 11 Sur 0 -- -- 78
2020-04-28 09:00:00 11.9 3 Sur 6 Sur 0 -- -- 94
2020-04-28 08:00:00 11.8 0 Calma 12 Este 0 -- -- 91
2020-04-28 07:00:00 12 6 Este 11 Este 0 -- -- 83
2020-04-28 06:00:00 11.6 4 Noroeste 8 Oeste 0 -- -- 87
2020-04-28 05:00:00 11.7 2 Noroeste 6 Oeste 0 -- -- 92
2020-04-28 04:00:00 12.2 0 Calma 4 Sudoeste 0 -- -- 93
2020-04-28 03:00:00 12.5 0 Calma 5 Sudoeste 0 -- -- 92
2020-04-28 02:00:00 12.8 0 Calma 6 Sudeste 0 -- -- 91
2020-04-28 01:00:00 13 2 Oeste 13 Nordeste 0 -- -- 87
2020-04-28 00:00:00 13.4 9 Este 12 Nordeste 0 -- -- 89
2020-04-27 23:00:00 13.8 5 Nordeste 10 Este 0 -- -- 86
2020-04-27 22:00:00 14 5 Sudeste 12 Sur 0 -- -- 86
2020-04-27 21:00:00 14.5 5 Sudoeste 15 Sudoeste 0 -- -- 83
2020-04-27 20:00:00 14.7 8 Sur 19 Sudoeste 0 -- -- 78
2020-04-27 19:00:00 16.1 9 Sudoeste 18 Oeste 0 -- -- 73
2020-04-27 18:00:00 17.2 8 Sudoeste 22 Sudoeste 0 -- -- 71
2020-04-27 17:00:00 17.8 9 Sudoeste 26 Oeste 0 -- -- 69
2020-04-27 16:00:00 19.1 13 Sudoeste 27 Oeste 0 -- -- 62
2020-04-27 15:00:00 19.9 14 Sudoeste 27 Oeste 0 -- -- 62
2020-04-27 14:00:00 18.5 14 Sudoeste 22 Sudoeste 0 -- -- 67
2020-04-27 13:00:00 18.6 10 Sudoeste 23 Oeste 0 -- -- 66
2020-04-27 12:00:00 18.4 8 Sudoeste 15 Sudoeste 0 -- -- 71
2020-04-27 11:00:00 16.6 8 Sur 14 Sur 0 -- -- 69
2020-04-27 10:00:00 15 2 Noroeste 7 Sudoeste 0 -- -- 68
2020-04-27 09:00:00 12.5 3 Nordeste 9 Nordeste 0 -- -- 76
2020-04-27 08:00:00 11.6 0 Calma 4 Nordeste 0 -- -- 80
2020-04-27 07:00:00 11.9 0 Calma 11 Este 0 -- -- 80
2020-04-27 06:00:00 11.2 8 Este 12 Nordeste 0 -- -- 89
2020-04-27 05:00:00 11.2 10 Nordeste 15 Este 0 -- -- 88
2020-04-27 04:00:00 11.2 6 Este 7 Este 0 -- -- 89
2020-04-27 03:00:00 11.2 5 Nordeste 9 Este 0 -- -- 91
2020-04-27 02:00:00 11.5 2 Nordeste 14 Este 0 -- -- 90
2020-04-27 01:00:00 11.6 2 Nordeste 5 Norte 0 -- -- 90
2020-04-27 00:00:00 12 0 Calma 12 Sudeste 0 -- -- 89
2020-04-26 23:00:00 12.4 2 Este 9 Noroeste 0 -- -- 86
2020-04-26 22:00:00 13.2 3 Oeste 10 Sur 0 -- -- 84
2020-04-26 21:00:00 14 5 Sudoeste 17 Oeste 0 -- -- 83
2020-04-26 20:00:00 15.6 10 Oeste 19 Oeste 0 -- -- 78
2020-04-26 19:00:00 14.9 7 Sudoeste 18 Oeste 0 -- -- 80
2020-04-26 18:00:00 15.7 9 Oeste 17 Sudoeste 0 -- -- 77
2020-04-26 17:00:00 15 8 Sudoeste 16 Sudoeste 0 -- -- 80
2020-04-26 16:00:00 15.3 9 Sudoeste 20 Sudoeste 0 -- -- 76
2020-04-26 15:00:00 15.6 10 Sudoeste 21 Sur 0 -- -- 74
2020-04-26 14:00:00 16.2 11 Sudoeste 22 Sur 0 -- -- 69
2020-04-26 13:00:00 16.6 11 Sudoeste 23 Sudoeste 0 -- -- 68
2020-04-26 12:00:00 17.1 9 Sudoeste 24 Sur 0 -- -- 68
2020-04-26 11:00:00 15 8 Sur 15 Sur 0 -- -- 71
2020-04-26 10:00:00 13.2 3 Sudoeste 10 Sur 0 -- -- 82
2020-04-26 09:00:00 -- 0 Calma -- -- 0 -- -- --
2020-04-26 08:00:00 10.3 0 Calma 5 Oeste 0 -- -- 78
2020-04-26 07:00:00 10.3 4 Norte 8 Nordeste 0 -- -- 79
2020-04-26 06:00:00 10.5 2 Norte 9 Este 0 -- -- 84
2020-04-26 05:00:00 10.6 8 Este 10 Este 0 -- -- 87
2020-04-26 04:00:00 10.8 0 Calma 5 Nordeste 0 -- -- 91
2020-04-26 03:00:00 11 0 Calma 5 Sudoeste 0 -- -- 92
2020-04-26 02:00:00 11.2 4 Sudoeste 6 Sur 0 -- -- 91
2020-04-26 01:00:00 11.5 0 Calma 5 Sur 0 -- -- 91
2020-04-26 00:00:00 11.6 0 Calma 12 Sudoeste 0 -- -- 89